Tiempo atmosférico en la estación meteorológica de Valencia Aeropuerto, València/Valencia (69 m.)



Fecha
DESCASC
Temp. máxima en grados centígrados (hora)
DESCASC
Temp. mínima en grados centígrados (hora)
DESCASC
Temp. media en grados centígrados
DESCASC
Racha de viento máxima en m/sg (hora)
DESCASC
Velocidad máxima media en intervalos de 10 minutos(hora)
DESCASC
Precipitaciones diarias en mm
DESCASC
Precipitaciones de 00:00 a 06:00 en mm
DESCASC
Precipitaciones de 06:00 a 12:00 en mm
DESCASC
Precipitaciones de 12:00 a 18:00 en mm
DESCASC
Precipitaciones de 18:00 a 24:00 en mm
DESCASC
05-04-2020 18.1 (16:40) 9.4 (07:30) 13.8 6.67 (13:40) 4.44 (17:50) 0 0 0 0 0
04-04-2020 17.9 (14:20) 6.1 (07:50) 12 9.17 (16:40) 6.11 (16:50) 0 0 0 0 0
03-04-2020 19.5 (14:20) 7.6 (07:50) 13.5 10.83 (17:40) 6.94 (17:40) 0.1 0.1 0 0 0
02-04-2020 16.6 (14:10) 11.3 (00:00) 14 9.72 (15:30) 6.39 (15:40) 0.1 0 0 0 0.1
01-04-2020 19.8 (13:30) 11.3 (00:00) 15.5 9.17 (16:50) 6.39 (17:10) 1.8 1.3 0.5 0 0
31-03-2020 15.4 (15:40) 7.1 (00:00) 11.2 9.17 (18:20) 6.11 (18:20) 14 3 9.7 0.1 1.2
30-03-2020 15 (11:40) 7.9 (00:00) 11.5 9.17 (14:10) 6.67 (14:30) 2 0 0 0 2
29-03-2020 23.9 (16:20) 5.4 (00:00) 14.6 9.17 (17:40) 6.67 (17:20) 0 0 0 0 0
28-03-2020 17.4 (15:10) 3.8 (00:00) 10.6 8.89 (14:30) 4.72 (14:30) 0 0 0 0 0
27-03-2020 11.8 (16:40) 5.2 (00:00) 8.5 8.89 (12:20) 6.11 (12:20) 1.5 0 0.8 0.7 0
26-03-2020 17.3 (14:10) 4.9 (00:00) 11.1 18.06 (13:40) 12.5 (13:40) 0.1 0 0 0.1 0
25-03-2020 11.4 (00:00) 7.1 (00:00) 9.2 9.72 (04:00) 6.67 (04:10) 0.2 0 0.2 0 0
24-03-2020 14.4 (15:10) 11.3 (00:00) 12.8 17.5 (11:00) 11.11 (14:10) 0 0 0 0 0
23-03-2020 16.8 (14:50) 11.7 (00:00) 14.2 11.39 (22:30) 7.5 (19:10) 12 2.5 9.2 0 0.3
22-03-2020 15.6 (14:40) 10.2 (06:30) 12.9 8.89 (15:50) 6.39 (15:50) 14.4 5 0 0 9.4
21-03-2020 14.2 (13:10) 8.1 (00:00) 11.2 6.67 (13:20) 4.72 (13:30) 1.4 0 0 0 1.4
20-03-2020 15.8 (12:00) 11.8 (00:00) 13.8 10.83 (11:40) 7.5 (11:20) 0 0 0 0 0
19-03-2020 16.3 (13:10) 9.8 (00:00) 13 8.89 (13:20) 6.11 (14:00) 0 0 0 0 0
18-03-2020 17.2 (14:20) 10.4 (00:00) 13.8 9.72 (15:20) 6.67 (15:20) 0 0 0 0 0
17-03-2020 14.5 (13:40) 9.7 (00:00) 12.1 15.28 (14:50) 9.72 (16:30) 21.1 12.1 7.8 1.2 0
16-03-2020 14.6 (00:00) 9.3 (00:00) 12 13.33 (11:00) 8.89 (15:50) 3.7 0.6 1.5 1.5 0.1
15-03-2020 19.3 (13:10) 8.9 (00:00) 14.1 8.33 (14:40) 5.56 (15:00) 0 0 0 0 0
14-03-2020 20.5 (15:00) 9 (00:00) 14.8 7.78 (15:40) 5 (16:50) 0 0 0 0 0
13-03-2020 18.6 (11:20) 10.4 (02:50) 14.5 10.83 (12:10) 6.67 (12:10) 0 0 0 0 0
12-03-2020 21.7 (14:20) 8.6 (00:00) 15.2 6.11 (15:00) 4.72 (16:40) 0 0 0 0 0
11-03-2020 25.1 (12:40) 7.8 (00:00) 16.5 8.33 (13:10) 5.56 (13:30) 0 0 0 0 0

Gráficas

Temp. máximas Temp. mínimas Temp. medias Precipitaciones Rachas de viento máximas Velocidades máximas media en intervalos de 10 minutos

Datos horarios

Fecha y hora oficial Temperatura (ºC) Velocidad del viento (km/h) Dirección del viento Racha (km/h) Dirección de racha Precipitación (mm) Presión (hPa) Tendencia (hPa) Humedad (%)
2020-04-09 23:00:00 15.4 5 Nordeste 11 Nordeste 0 1015.5 1.4 86
2020-04-09 22:00:00 15.6 6 Nordeste 21 Este 0 1015.2 1.3 84
2020-04-09 21:00:00 15.9 11 Este 15 Este 0 1014.5 0.9 80
2020-04-09 20:00:00 16.7 12 Este 21 Este 0 1014.1 0.4 73
2020-04-09 19:00:00 18.4 13 Este 21 Este 0 1013.9 -0.2 56
2020-04-09 18:00:00 18.6 14 Este 22 Este 0 1013.6 -1 50
2020-04-09 17:00:00 19.6 14 Este 33 Este 0 1013.7 -1.4 42
2020-04-09 16:00:00 19.7 14 Este 26 Este 0 1014.1 -1.6 47
2020-04-09 15:00:00 19.4 13 Este 22 Este 0 1014.6 -1.4 52
2020-04-09 14:00:00 18.9 5 Este 13 Este 0 1015.1 -0.8 53
2020-04-09 13:00:00 18 6 Sur 11 Sudeste 0 1015.7 0 55
2020-04-09 12:00:00 17.4 4 Sur 11 Sudeste 0 1016 0.5 56
2020-04-09 11:00:00 16.7 4 Nordeste 13 Oeste 0 1015.9 0.7 58
2020-04-09 10:00:00 14 8 Noroeste 15 Noroeste 0 1015.7 0.8 63
2020-04-09 09:00:00 10.6 11 Noroeste 15 Noroeste 0 1015.5 0.8 79
2020-04-09 08:00:00 7.7 5 Oeste 9 Oeste 0 1015.2 0.2 92
2020-04-09 07:00:00 7.8 6 Oeste 9 Oeste 0 1014.9 -0.4 92
2020-04-09 06:00:00 8.1 7 Oeste 9 Oeste 0 1014.7 -1.2 93
2020-04-09 05:00:00 8.7 4 Oeste 9 Oeste 0 1015 -1.5 92
2020-04-09 04:00:00 9.4 6 Noroeste 9 Noroeste 0 1015.3 -1.6 93
2020-04-09 03:00:00 9.5 7 Oeste 9 Noroeste 0 1015.9 -1.1 93
2020-04-09 02:00:00 10.9 9 Noroeste 11 Noroeste 0 1016.5 -0.7 87
2020-04-09 01:00:00 10.8 6 Oeste 9 Noroeste 0 1016.9 0 91
2020-04-09 00:00:00 11.8 8 Noroeste 9 Noroeste 0 1017 0.7 88
2020-04-08 23:00:00 14 5 Nordeste 9 Nordeste 0 1017.2 1.2 77
2020-04-08 22:00:00 14.4 8 Nordeste 11 Nordeste 0 1016.9 1.2 75
2020-04-08 21:00:00 14.7 9 Este 18 Este 0 1016.3 0.9 71
2020-04-08 20:00:00 16 15 Este 22 Este 0 1016 0.4 70
2020-04-08 19:00:00 17.7 18 Este 24 Este 0 1015.7 -0.4 59
2020-04-08 18:00:00 18.6 17 Este 28 Este 0 1015.4 -1 46
2020-04-08 17:00:00 18.8 18 Este 32 Este 0 1015.6 -1.3 56
2020-04-08 16:00:00 19 21 Este 32 Este 0 1016.1 -1.5 57
2020-04-08 15:00:00 19.4 15 Este 26 Este 0 1016.4 -1.7 48
2020-04-08 14:00:00 19.8 14 Este 24 Sudeste 0 1016.9 -1.6 51
2020-04-08 13:00:00 19.3 8 Este 17 Nordeste 0 1017.6 -1 52
2020-04-08 12:00:00 17.7 6 Sudoeste 11 Sur 0 1018.1 -0.5 58
2020-04-08 11:00:00 16.2 3 Nordeste 13 Noroeste 0 1018.5 0.2 69
2020-04-08 10:00:00 13.4 6 Noroeste 11 Noroeste 0 1018.6 0.6 80
2020-04-08 09:00:00 10.3 8 Noroeste 13 Noroeste 0 1018.6 0.7 92
2020-04-08 08:00:00 8.2 8 Oeste 9 Oeste 0 1018.3 -0.2 96
2020-04-08 07:00:00 8.4 6 Oeste 11 Oeste 0 1018 -0.8 94
2020-04-08 06:00:00 9.3 6 Noroeste 9 Noroeste 0 1017.9 -1.2 94
2020-04-08 05:00:00 9.4 9 Oeste -- -- 0 1018.5 -0.8 95
2020-04-08 04:00:00 10.1 4 Oeste 8 Oeste 0 1018.8 -0.9 96
2020-04-08 03:00:00 11.2 6 Oeste 9 Oeste 0 1019.1 -0.5 95
2020-04-08 02:00:00 12 5 Noroeste 9 Noroeste 0 1019.3 -0.5 94
2020-04-08 01:00:00 12.7 8 Oeste 11 Oeste 0 1019.7 0.3 93
2020-04-08 00:00:00 14.3 3 Norte 9 Este 0 1019.6 0.7 84
2020-04-07 23:00:00 14.7 8 Este 11 Este 0 1019.8 1.4 84
2020-04-07 22:00:00 14.6 8 Este 13 Este 0 1019.4 1.2 84
2020-04-07 21:00:00 15 9 Este 17 Este 0 1018.9 0.9 77
2020-04-07 20:00:00 15.7 13 Este 21 Este 0 1018.4 0.2 72
2020-04-07 19:00:00 16.6 15 Este 22 Este 0 1018.2 -0.2 66
2020-04-07 18:00:00 17.4 13 Este 24 Este 0 1018 -0.9 61
2020-04-07 17:00:00 17.5 15 Este 26 Este 0 1018.2 -0.8 60
2020-04-07 16:00:00 18.6 14 Este 22 Este 0 1018.4 -0.9 56
2020-04-07 15:00:00 17.2 12 Este 22 Este 0 1018.9 -0.7 62
2020-04-07 14:00:00 18 13 Este 21 Este 0 1019 -0.5 64
2020-04-07 13:00:00 17.1 13 Este 21 Este 0 1019.3 0.3 70
2020-04-07 12:00:00 15.8 13 Este 21 Este 0 1019.6 0.7 81
2020-04-07 11:00:00 15 8 Este 18 Este 0 1019.5 1.1 85
2020-04-07 10:00:00 14.3 8 Norte 13 Noroeste 0 1019 1.4 84
2020-04-07 09:00:00 12.8 10 Norte 13 Noroeste 0 1018.9 1.3 89
2020-04-07 08:00:00 12.3 9 Noroeste 13 Noroeste 0 1018.4 0.6 93
2020-04-07 07:00:00 12.5 9 Norte 13 Norte 0 1017.6 -0.3 94
2020-04-07 06:00:00 12.9 9 Norte 13 Noroeste 0 1017.6 -0.5 90
2020-04-07 05:00:00 12.7 9 Noroeste 13 Noroeste 0 1017.8 -0.5 95
2020-04-07 04:00:00 13.1 7 Norte 15 Noroeste 0 1017.9 -0.5 91
2020-04-07 03:00:00 13.6 9 Noroeste 11 Noroeste 0 1018.1 -0.2 89
2020-04-07 02:00:00 14 7 Nordeste 11 Norte 0 1018.3 0 87
2020-04-07 01:00:00 14.2 6 Nordeste 11 Nordeste 0 1018.4 0.3 86
2020-04-07 00:00:00 14.2 9 Norte 13 Nordeste 0 1018.3 0.8 86
2020-04-06 23:00:00 14.4 9 Nordeste 15 Nordeste 0 1018.3 1.6 86
2020-04-06 22:00:00 14.6 11 Nordeste 17 Nordeste 0 1018.1 1.6 85
2020-04-06 21:00:00 14.7 9 Este 18 Este 0 1017.5 1.3 83
2020-04-06 20:00:00 15.1 14 Este 22 Este 0 1016.7 0.5 81
2020-04-06 19:00:00 15.7 15 Este 22 Este 0 1016.5 0.5 76
2020-04-06 18:00:00 16.1 17 Este 26 Este 0 1016.2 0.1 74
2020-04-06 17:00:00 16.6 14 Este 24 Este 0 1016.2 -0.1 72
2020-04-06 16:00:00 17.1 14 Este 26 Este 0 1016 -0.5 68
2020-04-06 15:00:00 17.7 12 Este 28 Este 0 1016.1 -0.4 64
2020-04-06 14:00:00 17.4 12 Este 22 Sudeste 0 1016.3 0.2 65
2020-04-06 13:00:00 16.6 9 Este 21 Nordeste 0 1016.5 0.8 68
2020-04-06 12:00:00 16.6 9 Sudeste 21 Sudeste 0 1016.5 1.3 66
2020-04-06 11:00:00 15.9 6 Este 11 Sudeste 0 1016.1 1.6 70
2020-04-06 10:00:00 14.3 4 Norte 9 Norte 0 1015.7 1.9 74
2020-04-06 09:00:00 11.8 5 Oeste 8 Oeste 0 1015.2 1.5 87
2020-04-06 08:00:00 10.3 4 Noroeste 11 Oeste 0 1014.5 0.5 94
2020-04-06 07:00:00 10.5 3 Oeste 11 Noroeste 0 1013.8 -0.2 93
2020-04-06 06:00:00 10.5 8 Noroeste 11 Noroeste 0 1013.7 -0.5 91
2020-04-06 05:00:00 10.8 6 Oeste 11 Noroeste 0 1014 -0.3 91
2020-04-06 04:00:00 10.7 7 Noroeste 11 Noroeste 0 1014 -0.3 90
2020-04-06 03:00:00 10.6 8 Noroeste 13 Noroeste 0 1014.2 0 90
2020-04-06 02:00:00 10.8 10 Noroeste 13 Noroeste 0 1014.3 0.5 89
2020-04-06 01:00:00 10.8 9 Noroeste 13 Noroeste 0 1014.3 0.9 91
2020-04-06 00:00:00 11.1 8 Noroeste 11 Noroeste 0 1014.2 1.4 90
2020-04-05 23:00:00 12.7 2 Sudeste 8 Sudeste 0 1013.8 1.2 87
2020-04-05 22:00:00 13.1 7 Sudeste 13 Sudeste 0 1013.4 1.1 85
2020-04-05 21:00:00 13.9 9 Sudeste 17 Sudeste 0 1012.8 0.8 78
2020-04-05 20:00:00 15.3 12 Sudeste 21 Sudeste 0 1012.6 0.2 62
2020-04-05 19:00:00 16.7 15 Sudeste 24 Este 0 1012.3 -0.6 56
2020-04-05 18:00:00 17.3 16 Sudeste 24 Sudeste 0 1012 -1.6 55
2020-04-05 17:00:00 17.8 13 Sudeste 24 Sudeste 0 1012.4 -1.5 54
2020-04-05 16:00:00 17.5 13 Sudeste 24 Sudeste 0 1012.9 -1.3 58
2020-04-05 15:00:00 17.1 15 Sudeste 24 Sudeste 0 1013.6 -0.9 62
2020-04-05 14:00:00 16.4 13 Sudeste 24 Este 0 1013.9 -0.6 64
2020-04-05 13:00:00 15.8 12 Este 21 Este 0 1014.2 -0.1 66
2020-04-05 12:00:00 15.6 10 Este 17 Este 0 1014.5 0.6 70
2020-04-05 11:00:00 14.2 4 Nordeste 9 Norte 0 1014.5 1.2 67
2020-04-05 10:00:00 12 9 Noroeste 15 Norte 0 1014.3 1.5 76
2020-04-05 09:00:00 10.8 9 Noroeste 15 Noroeste 0 1013.9 1.2 80
2020-04-05 08:00:00 9.7 9 Noroeste 13 Noroeste 0 1013.3 0.5 86
2020-04-05 07:00:00 9.7 9 Noroeste 13 Noroeste 0 1012.8 -0.1 87
2020-04-05 06:00:00 9.7 8 Noroeste 13 Noroeste 0 1012.7 -0.4 87
2020-04-05 05:00:00 9.6 8 Noroeste 13 Noroeste 0 1012.8 -0.6 88
2020-04-05 04:00:00 9.8 6 Noroeste 11 Noroeste 0 1012.9 -0.3 89
2020-04-05 03:00:00 10.3 9 Norte 13 Norte 0 1013.1 -0.1 89
2020-04-05 02:00:00 11 9 Noroeste 11 Noroeste 0 1013.4 0 91
2020-04-05 01:00:00 12.2 9 Norte 15 Nordeste 0 1013.2 0 89
2020-04-05 00:00:00 12.5 11 Norte 15 Norte 0 1013.2 0.6 89
2020-04-04 23:00:00 13.4 6 Nordeste 11 Este 0 1013.4 1.3 83
2020-04-04 22:00:00 13.6 8 Este 18 Sudeste 0 1013.2 1.4 83
2020-04-04 21:00:00 14.1 7 Este 21 Este 0 1012.6 1.2 80
2020-04-04 20:00:00 15 16 Este 28 Este 0 1012.1 0.6 75
2020-04-04 19:00:00 16 19 Este 33 Este 0 1011.8 0.2 68
2020-04-04 18:00:00 16.6 19 Este 32 Este 0 1011.4 -0.7 70
2020-04-04 17:00:00 17.1 21 Sudeste 33 Este 0 1011.5 -0.8 65
2020-04-04 16:00:00 17.5 18 Sudeste 30 Este 0 1011.6 -1.1 62
2020-04-04 15:00:00 17.8 19 Sudeste 28 Este 0 1012.1 -0.8 58
2020-04-04 14:00:00 17.6 14 Sudeste 22 Sudeste 0 1012.3 -0.6 57
2020-04-04 13:00:00 17 9 Este 22 Nordeste 0 1012.7 0.1 54
2020-04-04 12:00:00 16.1 6 Este 13 Este 0 1012.9 0.6 58
2020-04-04 11:00:00 13.7 4 Norte 11 Noroeste 0 1012.9 1.2 64
2020-04-04 10:00:00 11 10 Noroeste 15 Noroeste 0 1012.6 1.4 73
2020-04-04 09:00:00 7.8 6 Sudoeste 11 Noroeste 0 1012.3 1.3 91
2020-04-04 08:00:00 6.2 4 Oeste 13 Oeste 0 1011.7 0.5 96
2020-04-04 07:00:00 6.7 8 Oeste 11 Oeste 0 1011.2 -0.1 96
2020-04-04 06:00:00 7.3 6 Oeste 11 Oeste 0 1011 -0.5 94
2020-04-04 05:00:00 7.9 6 Oeste 9 Oeste 0 1011.2 -0.4 95
2020-04-04 04:00:00 8.6 6 Oeste 11 Oeste 0 1011.3 -0.4 94
2020-04-04 03:00:00 9.2 9 Oeste 17 Noroeste 0 1011.5 -0.2 93
2020-04-04 02:00:00 10.3 16 Noroeste 18 Noroeste 0 1011.6 0.3 90
2020-04-04 01:00:00 10.8 11 Noroeste 13 Noroeste 0 1011.7 0.8 88
2020-04-04 00:00:00 10.7 6 Noroeste 13 Norte 0 1011.7 1.7 89
2020-04-03 23:00:00 12.4 9 Nordeste 13 Nordeste 0 1011.3 1.9 81
2020-04-03 22:00:00 13.2 10 Nordeste 17 Este 0 1010.9 1.9 80
2020-04-03 21:00:00 13.7 10 Este 21 Este 0 1010 1.3 73
2020-04-03 20:00:00 14.8 15 Sudeste 30 Sudeste 0 1009.4 0.9 68
2020-04-03 19:00:00 15.9 20 Sudeste 30 Este 0 1009 0.5 64
2020-04-03 18:00:00 16.7 25 Sudeste 39 Sudeste 0 1008.7 0 60
2020-04-03 17:00:00 17.4 20 Sudeste 33 Sudeste 0 1008.5 -0.6 53
2020-04-03 16:00:00 18 19 Este 30 Este 0 1008.5 -0.9 50
2020-04-03 15:00:00 18.8 19 Este 30 Este 0 1008.7 -1.1 51
2020-04-03 14:00:00 19 9 Sudeste 22 Sudeste 0 1009.1 -0.6 48
2020-04-03 13:00:00 18.2 11 Sudeste 18 Sur 0 1009.4 0.1 51
2020-04-03 12:00:00 16.7 5 Sur 13 Sur -- 1009.8 0.8 53
2020-04-03 11:00:00 14.4 5 Oeste 17 Oeste 0 1009.7 1.5 60
2020-04-03 10:00:00 12.9 10 Oeste 17 Oeste 0 1009.3 1.8 67
2020-04-03 09:00:00 8.8 9 Oeste 13 Oeste -- 1009 1.9 95
2020-04-03 08:00:00 7.7 8 Oeste 13 Noroeste 0 1008.2 1 98
2020-04-03 07:00:00 8.4 13 Noroeste 18 Noroeste 0 1007.5 0.3 99
2020-04-03 06:00:00 8.7 9 Oeste 11 Oeste 0 1007.1 -0.3 99
2020-04-03 05:00:00 10.4 0 Calma 8 Este 0 1007.2 -0.6 95
2020-04-03 04:00:00 11 6 Sudeste -- -- 0 1007.2 -0.6 95
2020-04-03 03:00:00 11.3 5 Sur -- -- 0 1007.4 -0.5 94
2020-04-03 02:00:00 11.4 4 Noroeste 9 Oeste 0.1 1007.8 0.1 95
2020-04-03 01:00:00 11.5 5 Oeste 9 Oeste 0 1007.8 0.4 93
2020-04-03 00:00:00 11.9 5 Noroeste 9 Noroeste 0 1007.9 1.4 87
2020-04-02 23:00:00 11.8 5 Noroeste 9 Oeste 0 1007.7 1.7 92
2020-04-02 22:00:00 12 6 Norte 13 Nordeste 0 1007.4 2 86
2020-04-02 21:00:00 12 10 Nordeste 22 Nordeste 0 1006.5 1.6 86
2020-04-02 20:00:00 12.3 16 Nordeste 24 Nordeste 0.1 1006 1.5 87
2020-04-02 19:00:00 12.6 15 Este 30 Este 0 1005.4 1.1 84
2020-04-02 18:00:00 13.4 22 Este 33 Este 0 1004.9 0.8 78
2020-04-02 17:00:00 14.6 21 Este 30 Este 0 1004.5 0.3 72
2020-04-02 16:00:00 14.8 23 Este 35 Sudeste 0 1004.3 -0.5 74
2020-04-02 15:00:00 15.9 17 Sudeste 30 Sudeste 0 1004.1 -1.1 70
2020-04-02 14:00:00 16.2 8 Sudeste 21 Sudeste 0 1004.2 -0.8 62
2020-04-02 13:00:00 14.9 9 Sur 13 Sur 0 1004.8 0.3 70
2020-04-02 12:00:00 13.5 5 Sudoeste 13 Sudoeste 0 1005.2 1.2 75
2020-04-02 11:00:00 12.6 8 Sur 13 Sudoeste 0 1005 1.2 80
2020-04-02 10:00:00 12.4 6 Sudeste 11 Sudeste 0 1004.5 0.9 81
2020-04-02 09:00:00 11.9 6 Nordeste 8 Nordeste 0 1004 0.6 85
2020-04-02 08:00:00 11.4 4 Sur 9 Sur 0 1003.8 0 88
2020-04-02 07:00:00 11.6 7 Sur 11 Sudoeste 0 1003.6 -0.6 86
2020-04-02 06:00:00 11.6 4 Oeste 9 Sur 0 1003.4 -1.4 87
2020-04-02 05:00:00 11.6 7 Sur 13 Sudoeste 0 1003.8 -1.1 86
2020-04-02 04:00:00 11.5 8 Sudoeste 15 Sudoeste 0 1004.2 -0.9 86
2020-04-02 03:00:00 11.9 10 Sudoeste 13 Sudoeste 0 1004.8 -0.7 83
2020-04-02 02:00:00 12.3 6 Sudeste 13 Este 0 1004.9 -0.3 78
2020-04-02 01:00:00 12.6 5 Sur 13 Este 0 1005.1 0.2 77
2020-04-02 00:00:00 12.9 9 Este 17 Este 0 1005.5 1.1 75
2020-04-01 23:00:00 13 10 Este 28 Este 0 1005.2 2 75
2020-04-01 22:00:00 13.6 19 Este 28 Este 0 1004.9 1.9 71
2020-04-01 21:00:00 14.1 13 Sur 30 Este 0 1004.4 2 76
2020-04-01 20:00:00 14.8 17 Este 30 Este 0 1003.2 1.1 73
2020-04-01 19:00:00 15.5 21 Sudeste 30 Sudeste 0 1003 0.8 72
2020-04-01 18:00:00 16.8 19 Sudeste 30 Este 0 1002.4 -0.3 64
2020-04-01 17:00:00 17.7 23 Este 33 Este 0 1002.1 -1.1 63
2020-04-01 16:00:00 18.4 20 Este 28 Este 0 1002.2 -1.5 66
2020-04-01 15:00:00 18.3 20 Este 30 Este 0 1002.7 -1.3 66
2020-04-01 14:00:00 19.1 2 Norte 15 Sur 0 1003.2 -0.9 56
2020-04-01 13:00:00 19 6 Este 13 Sudeste 0 1003.7 -0.4 58
2020-04-01 12:00:00 17.5 8 Noroeste 18 Noroeste 0 1004 0.3 63
2020-04-01 11:00:00 15.8 5 Oeste 13 Sudoeste 0 1004.1 1.1 73
2020-04-01 10:00:00 12.4 10 Oeste 15 Oeste 0 1004.1 0.5 93
2020-04-01 09:00:00 11.6 9 Oeste 21 Noroeste 0 1003.7 0.2 97
2020-04-01 08:00:00 11.4 15 Noroeste 28 Norte 0.3 1003 -0.6 97
2020-04-01 07:00:00 11.8 12 Oeste 24 Oeste 0.2 1003.6 -0.4 94
2020-04-01 06:00:00 11.7 9 Oeste 15 Oeste 0 1003.5 -1 98
2020-04-01 05:00:00 11.7 9 Oeste 15 Oeste 0 1003.6 -1.1 98
2020-04-01 04:00:00 11.7 10 Oeste 15 Oeste 0 1004 -0.9 97
2020-04-01 03:00:00 11.7 13 Oeste 15 Sudoeste 0.4 1004.5 -0.3 96
2020-04-01 02:00:00 11.8 4 Oeste 21 Oeste 0.2 1004.7 0 96
2020-04-01 01:00:00 12 8 Oeste 17 Norte 0.7 1004.9 0.3 95
2020-04-01 00:00:00 12.4 10 Norte 28 Norte 0 1004.8 0.7 90
2020-03-31 23:00:00 12.1 18 Norte 33 Nordeste 1.2 1004.7 1.6 92
2020-03-31 22:00:00 13 16 Norte 32 Norte 0 1004.6 1.9 81
2020-03-31 21:00:00 13.3 12 Norte 28 Nordeste 0 1004.1 1.6 78
2020-03-31 20:00:00 13.6 18 Norte 32 Nordeste 0 1003.1 0.9 75
2020-03-31 19:00:00 14.5 22 Nordeste 33 Nordeste 0 1002.7 0.5 71
2020-03-31 18:00:00 15.1 17 Norte 30 Norte 0 1002.5 0.2 72
2020-03-31 17:00:00 14.8 10 Norte 21 Nordeste 0 1002.2 -0.4 78
2020-03-31 16:00:00 15.1 15 Nordeste 22 Nordeste 0 1002.2 -0.9 74
2020-03-31 15:00:00 14.7 13 Norte 21 Norte 0 1002.3 -1 80
2020-03-31 14:00:00 12.4 12 Noroeste 21 Norte 0 1002.6 -1 89
2020-03-31 13:00:00 10.2 13 Noroeste 18 Noroeste 0.1 1003.1 -0.2 95
2020-03-31 12:00:00 8.9 5 Oeste 13 Oeste 0.2 1003.3 0 97
2020-03-31 11:00:00 8.3 7 Oeste 15 Oeste 2.3 1003.6 0.4 97
2020-03-31 10:00:00 7.8 13 Noroeste 17 Noroeste 2.6 1003.3 0.3 98
2020-03-31 09:00:00 7.5 10 Oeste 17 Oeste 2.2 1003.3 0 96
2020-03-31 08:00:00 7.4 10 Sudoeste 15 Sudoeste 1 1003.2 -0.5 96
2020-03-31 07:00:00 7.4 10 Oeste 17 Oeste 1.4 1003 -1.9 97
2020-03-31 06:00:00 7.3 13 Oeste 17 Oeste 0 1003.3 -1.9 95
2020-03-31 05:00:00 7.2 10 Noroeste 13 Noroeste 0 1003.7 -2 96
2020-03-31 04:00:00 7.6 5 Noroeste 18 Norte 0 1004.9 -1.3 89
2020-03-31 03:00:00 7.3 14 Nordeste 22 Nordeste 0.6 1005.2 -1.3 89
2020-03-31 02:00:00 7.2 10 Nordeste 24 Nordeste 2 1005.7 -1 93
2020-03-31 01:00:00 7.8 14 Nordeste 28 Nordeste 0.4 1006.2 -0.5 92
2020-03-31 00:00:00 8 11 Nordeste 21 Nordeste 1.5 1006.5 0 90
2020-03-30 23:00:00 8.4 13 Nordeste 24 Nordeste 0.5 1006.7 0.4 88
2020-03-30 22:00:00 9.7 8 Nordeste 18 Nordeste 0 1006.7 0.9 76
2020-03-30 21:00:00 10 10 Norte 15 Norte 0 1006.5 0.9 77
2020-03-30 20:00:00 10.3 10 Este 26 Este 0 1006.3 0.7 67
2020-03-30 19:00:00 10.6 16 Nordeste 32 Nordeste 0 1005.8 0 64
2020-03-30 18:00:00 11.2 19 Nordeste 28 Nordeste 0 1005.6 -0.6 64
2020-03-30 17:00:00 11.8 19 Este 26 Este 0 1005.6 -1.1 65
2020-03-30 16:00:00 12.3 17 Este 32 Este 0 1005.8 -1 61
2020-03-30 15:00:00 12.9 20 Este 33 Este 0 1006.2 -0.6 60
2020-03-30 14:00:00 12.9 22 Este 32 Este 0 1006.7 0 63
2020-03-30 13:00:00 13.3 21 Este 32 Este 0 1006.8 0.6 58
2020-03-30 12:00:00 14.5 19 Este 30 Este 0 1006.8 0.7 60
2020-03-30 11:00:00 13.9 18 Este 24 Este 0 1006.7 1.4 64
2020-03-30 10:00:00 13 6 Este 9 Este 0 1006.2 1.1 73
2020-03-30 09:00:00 11.9 0 Calma 9 Sur 0 1006.1 1 84
2020-03-30 08:00:00 11.5 6 Sur 13 Sur 0 1005.3 0.1 82
2020-03-30 07:00:00 12.1 10 Sur 15 Sur 0 1005.1 -0.3 81
2020-03-30 06:00:00 11.8 7 Sudoeste 11 Sudoeste 0 1005.1 -0.7 79
2020-03-30 05:00:00 11.7 0 Calma 9 Sur 0 1005.2 -0.8 79
2020-03-30 04:00:00 12.6 8 Sur 13 Sudoeste 0 1005.4 -0.7 72
2020-03-30 03:00:00 11.3 8 Sudoeste 9 Oeste 0 1005.8 -0.1 86
2020-03-30 02:00:00 12.1 10 Sudoeste 15 Oeste 0 1006 0.4 84
2020-03-30 01:00:00 13.7 5 Sudeste 9 Este 0 1006.1 0.7 70
2020-03-30 00:00:00 14.3 0 Calma 13 Este 0 1005.9 1 66
2020-03-29 23:00:00 15.4 6 Este 18 Este 0 1005.6 0.8 65
2020-03-29 22:00:00 16.4 6 Nordeste 22 Noroeste 0 1005.4 0.6 64
2020-03-29 21:00:00 17.4 3 Norte 17 Sur 0 1004.9 -0.2 63
2020-03-29 20:00:00 18.9 14 Sudeste 26 Sudeste 0 1004.8 -0.9 53
2020-03-29 19:00:00 19.8 18 Sudeste 32 Sudeste 0 1004.8 -1.7 48
2020-03-29 18:00:00 21 23 Sudeste 33 Sudeste 0 1005.1 -2.3 46
2020-03-29 17:00:00 22.8 20 Sudeste 32 Sur 0 1005.7 -2.7 37
2020-03-29 16:00:00 23.1 8 Sur 24 Sur 0 1006.5 -2.5 27
2020-03-29 15:00:00 22.5 9 Sudoeste 24 Sudoeste 0 1007.4 -2.2 29
2020-03-29 14:00:00 21.5 9 Sudoeste 18 Sudoeste 0 1008.4 -1.6 31
2020-03-29 13:00:00 20.3 6 Sur 15 Sur 0 1009 -1.2 39
2020-03-29 12:00:00 18.2 8 Sudoeste 15 Oeste 0 1009.6 -0.7 44
2020-03-29 11:00:00 15.3 12 Oeste 21 Oeste 0 1010 0.2 54
2020-03-29 10:00:00 11.7 9 Oeste 13 Oeste 0 1010.2 0.5 69
2020-03-29 09:00:00 8.1 9 Oeste 17 Oeste 0 1010.3 0.4 85
2020-03-29 08:00:00 5.9 15 Oeste 18 Oeste 0 1009.8 -0.4 89
2020-03-29 07:00:00 5.5 12 Oeste 15 Oeste 0 1009.7 -1.1 91
2020-03-29 06:00:00 5.8 9 Oeste 17 Oeste 0 1009.9 -1.5 92
2020-03-29 05:00:00 5.9 6 Oeste 13 Oeste 0 1010.2 -1.6 92
2020-03-29 03:00:00 7 10 Oeste 13 Oeste 0 1011.4 -0.7 89
2020-03-29 01:00:00 6.8 9 Oeste 11 Oeste 0 1011.8 -0.2 91
2020-03-29 00:00:00 7.9 5 Oeste 11 Noroeste 0 1012.1 0.3 87
2020-03-28 23:00:00 8.2 5 Oeste 11 Noroeste 0 1012.1 1.1 87
2020-03-28 22:00:00 8.8 9 Oeste 11 Oeste 0 1012 1.4 87
2020-03-28 21:00:00 11.8 6 Sur 9 Sudoeste 0 1011.8 1.4 68
2020-03-28 20:00:00 12.6 4 Sudeste 9 Sudeste 0 1011 1 64
2020-03-28 19:00:00 14.7 6 Este 17 Este 0 1010.6 0.5 54
2020-03-28 18:00:00 15.6 12 Este 18 Este 0 1010.4 0 47
2020-03-28 17:00:00 16.1 13 Este 24 Este 0 1010 -0.5 45
2020-03-28 16:00:00 15.9 11 Este 22 Este 0 1010.1 -0.8 44
2020-03-28 15:00:00 16.7 15 Este 32 Este 0 1010.4 -0.9 44
2020-03-28 14:00:00 16.8 12 Este 24 Este 0 1010.5 -1 44
2020-03-28 13:00:00 16.4 12 Este 22 Nordeste 0 1010.9 -0.4 47
2020-03-28 12:00:00 14.9 7 Nordeste 17 Nordeste 0 1011.3 0.6 47
2020-03-28 11:00:00 13.8 4 Noroeste 17 Oeste 0 1011.5 1.1 45
2020-03-28 10:00:00 11.3 12 Noroeste 21 Oeste 0 1011.3 1.2 60
2020-03-28 09:00:00 8.4 9 Oeste 15 Noroeste 0 1010.7 0.8 76
2020-03-28 08:00:00 6.2 10 Oeste 15 Noroeste 0 1010.4 0.7 88
2020-03-28 07:00:00 5 9 Oeste 13 Noroeste 0 1010.1 0.5 93
2020-03-28 06:00:00 3.9 6 Oeste 17 Oeste 0 1009.9 0.2 94
2020-03-28 05:00:00 5.2 12 Noroeste 18 Noroeste 0 1009.7 -0.2 93
2020-03-28 04:00:00 5.5 14 Noroeste 18 Noroeste 0 1009.6 0 95
2020-03-28 03:00:00 6.2 14 Noroeste 18 Noroeste 0 1009.7 0.3 95
2020-03-28 02:00:00 6.4 6 Oeste 15 Noroeste 0 1009.9 0.7 94
2020-03-28 01:00:00 7.1 9 Noroeste 17 Noroeste 0 1009.6 0.8 93
2020-03-28 00:00:00 7.7 9 Noroeste 17 Noroeste 0 1009.4 1.1 94
2020-03-27 23:00:00 7.8 9 Noroeste 15 Noroeste 0 1009.2 1.5 93
2020-03-27 22:00:00 9 12 Noroeste 18 Noroeste 0 1008.8 1.5 90
2020-03-27 21:00:00 9.5 9 Noroeste 13 Noroeste 0 1008.3 1.3 89
2020-03-27 20:00:00 9.5 8 Oeste 13 Oeste 0 1007.7 1 91
2020-03-27 19:00:00 10.1 8 Oeste 17 Oeste 0 1007.3 0.6 88
2020-03-27 18:00:00 10.7 10 Oeste 22 Oeste 0 1007 0 82
2020-03-27 17:00:00 11.2 14 Sudoeste 21 Oeste 0 1006.7 -0.7 79
2020-03-27 16:00:00 11 4 Noroeste 15 Norte 0 1006.7 -0.7 75
2020-03-27 15:00:00 10.3 10 Norte 24 Nordeste 0 1007 -0.5 80
2020-03-27 14:00:00 9.7 15 Nordeste 28 Nordeste 0.1 1007.4 0.2 83
2020-03-27 13:00:00 9.1 18 Nordeste 32 Nordeste 0.6 1007.4 0.9 89
2020-03-27 12:00:00 8.9 14 Nordeste 22 Nordeste 0 1007.5 1.3 87
2020-03-27 11:00:00 8.7 13 Nordeste 28 Nordeste 0.2 1007.2 1.2 85
2020-03-27 10:00:00 8.4 9 Nordeste 17 Norte 0.3 1006.5 0.6 88
2020-03-27 09:00:00 7.9 6 Noroeste 18 Norte 0 1006.2 0.8 87
2020-03-27 08:00:00 7.2 10 Noroeste 13 Noroeste 0.3 1006 0.9 89
2020-03-27 07:00:00 6.9 2 Este 17 Noroeste 0 1005.9 0.2 84
2020-03-27 06:00:00 6.2 12 Noroeste 17 Noroeste 0 1005.4 -0.6 87
2020-03-27 05:00:00 5.8 10 Noroeste 17 Noroeste 0 1005.1 -0.9 89
2020-03-27 04:00:00 5.8 9 Oeste 17 Noroeste 0 1005.7 0 92
2020-03-27 03:00:00 6 13 Noroeste 17 Noroeste 0 1006 0.5 90
2020-03-27 02:00:00 6.2 11 Noroeste 22 Nordeste 0 1006 0.8 84
2020-03-27 01:00:00 8 13 Nordeste 18 Nordeste 0 1005.7 0.7 71
2020-03-27 00:00:00 8 8 Nordeste 21 Este 0 1005.5 0.7 77
2020-03-26 23:00:00 8.9 15 Nordeste 22 Nordeste 0 1005.2 1.3 74
2020-03-26 22:00:00 9.2 13 Nordeste 21 Nordeste 0 1005 2.3 78
2020-03-26 21:00:00 9.8 8 Nordeste 26 Nordeste 0 1004.8 2.7 75
2020-03-26 20:00:00 10.8 13 Nordeste 24 Este 0 1003.9 2.9 68
2020-03-26 19:00:00 11.5 16 Este 35 Este 0 1002.7 2.1 70
2020-03-26 18:00:00 12.4 19 Este 32 Este 0 1002.1 2.1 67
2020-03-26 17:00:00 13.2 13 Nordeste 32 Este 0.1 1001 0.8 55
2020-03-26 16:00:00 13.1 25 Este 42 Nordeste 0 1000.6 0.2 53
2020-03-26 15:00:00 16 20 Noroeste 41 Norte 0 1000 -0.4 36
2020-03-26 14:00:00 16.1 35 Norte 65 Norte 0 1000.2 -0.5 33
2020-03-26 13:00:00 16.5 37 Noroeste 58 Noroeste 0 1000.4 -0.7 36
2020-03-26 12:00:00 16.2 39 Norte 54 Norte 0 1000.4 -1.4 36
2020-03-26 11:00:00 15.5 19 Noroeste 41 Noroeste 0 1000.7 -1.1 40
2020-03-26 10:00:00 13.4 20 Noroeste 30 Oeste 0 1001.1 -0.5 50
2020-03-26 09:00:00 8.4 8 Noroeste 15 Noroeste 0 1001.8 -0.1 88
2020-03-26 08:00:00 5.8 6 Noroeste 9 Noroeste 0 1001.8 -0.6 97
2020-03-26 07:00:00 5.4 5 Noroeste 11 Noroeste 0 1001.6 -1.4 97
2020-03-26 06:00:00 5.3 5 Noroeste 8 Noroeste 0 1001.9 -1.7 97
2020-03-26 05:00:00 6 7 Noroeste 9 Noroeste 0 1002.4 -2.4 96
2020-03-26 04:00:00 5.6 3 Oeste 9 Noroeste 0 1003 -2.9 97
2020-03-26 03:00:00 6 3 Sur 11 Noroeste 0 1003.6 -3.4 96
2020-03-26 02:00:00 5.7 2 Sudoeste 11 Oeste 0 1004.8 -3 95
2020-03-26 01:00:00 6.6 8 Noroeste 13 Noroeste 0 1005.9 -2.5 95
2020-03-26 00:00:00 7.2 8 Noroeste 11 Noroeste 0 1007 -2.1 95
2020-03-25 23:00:00 8.2 5 Sudoeste 8 Sudoeste 0 1007.8 -0.9 88
2020-03-25 22:00:00 9.2 4 Oeste 9 Oeste 0 1008.4 -0.3 85
2020-03-25 21:00:00 9.3 7 Oeste 9 Oeste 0 1009.1 0 83
2020-03-25 20:00:00 9.6 6 Noroeste 9 Noroeste 0 1008.7 -0.5 76
2020-03-25 19:00:00 9.7 0 Calma 11 Nordeste 0 1008.7 -0.7 75
2020-03-25 18:00:00 9.7 6 Nordeste 15 Este 0 1009.1 -0.6 75
2020-03-25 17:00:00 9.8 9 Este 22 Nordeste 0 1009.2 -0.9 72
2020-03-25 16:00:00 9.8 16 Nordeste 24 Nordeste 0 1009.4 -0.9 75
2020-03-25 15:00:00 9.9 14 Este 26 Nordeste 0 1009.7 -0.8 77
2020-03-25 14:00:00 10 15 Nordeste 26 Nordeste 0 1010.1 -0.6 78
2020-03-25 13:00:00 10.3 15 Nordeste 24 Nordeste 0 1010.3 -0.3 78
2020-03-25 12:00:00 10.5 16 Nordeste 24 Nordeste 0.1 1010.5 0.2 81
2020-03-25 11:00:00 10.4 11 Nordeste 21 Nordeste 0.1 1010.7 0.7 80
2020-03-25 10:00:00 10.1 7 Noroeste 9 Noroeste 0 1010.6 0.7 82
2020-03-25 09:00:00 9.4 8 Noroeste 17 Noroeste 0 1010.3 0.5 85
2020-03-25 08:00:00 9.2 12 Noroeste 17 Noroeste 0 1010 0.2 90
2020-03-25 07:00:00 8.9 9 Noroeste 13 Noroeste 0 1009.9 -0.1 92
2020-03-25 06:00:00 9.2 8 Oeste 17 Oeste 0 1009.8 -0.1 88
2020-03-25 05:00:00 9.3 9 Noroeste 33 Nordeste 0 1009.8 -0.4 89
2020-03-25 04:00:00 10.1 14 Nordeste 35 Nordeste 0 1010 -0.5 81
2020-03-25 03:00:00 9.7 9 Noroeste 17 Norte 0 1009.9 -0.7 82
2020-03-25 02:00:00 10.5 13 Norte 30 Norte 0 1010.2 -0.7 76
2020-03-25 01:00:00 11.1 13 Norte 22 Norte 0 1010.5 -0.7 76
2020-03-25 00:00:00 11.4 15 Norte 24 Norte 0 1010.6 -0.5 75
2020-03-24 23:00:00 12 11 Norte 21 Nordeste 0 1010.9 0.5 73
2020-03-24 22:00:00 12.4 14 Nordeste 30 Nordeste 0 1011.2 1.3 69
2020-03-24 21:00:00 12.5 21 Nordeste 42 Este 0 1011.1 1.8 68
2020-03-24 20:00:00 12.6 26 Nordeste 48 Nordeste 0 1010.4 1.3 70
2020-03-24 19:00:00 12.8 29 Nordeste 46 Nordeste 0 1009.9 0.8 70
2020-03-24 18:00:00 13 28 Nordeste 48 Nordeste 0 1009.3 -0.3 76
2020-03-24 17:00:00 13.3 29 Nordeste 50 Nordeste 0 1009.1 -1 75
2020-03-24 16:00:00 14 33 Nordeste 54 Nordeste 0 1009.1 -1.3 73
2020-03-24 15:00:00 14.1 38 Nordeste 61 Nordeste 0 1009.6 -1 71
2020-03-24 14:00:00 13.8 39 Nordeste 58 Nordeste 0 1010.1 -0.2 73
2020-03-24 13:00:00 13.9 34 Nordeste 61 Nordeste 0 1010.4 0.2 74
2020-03-24 12:00:00 14 40 Nordeste 55 Norte 0 1010.6 0.8 76
2020-03-24 11:00:00 13.8 39 Nordeste 63 Nordeste 0 1010.3 0.8 74
2020-03-24 10:00:00 13.5 33 Nordeste 58 Nordeste 0 1010.2 1.3 80
2020-03-24 09:00:00 13.6 33 Nordeste 59 Nordeste 0 1009.8 0.9 77
2020-03-24 08:00:00 13.4 32 Nordeste 54 Nordeste 0 1009.5 0.4 80
2020-03-24 07:00:00 13.4 35 Nordeste 59 Nordeste 0 1008.9 0.2 84
2020-03-24 06:00:00 13.6 36 Nordeste 55 Nordeste 0 1008.9 -0.4 82
2020-03-24 05:00:00 13.8 32 Nordeste 50 Este 0 1009.1 -0.1 85
2020-03-24 04:00:00 13.6 27 Nordeste 46 Nordeste 0 1008.7 -0.8 88
2020-03-24 03:00:00 13.6 27 Nordeste 52 Nordeste 0 1009.3 -0.5 88
2020-03-24 02:00:00 13.8 30 Nordeste 45 Nordeste 0 1009.2 -1.1 90
2020-03-24 01:00:00 14.1 31 Nordeste 45 Nordeste 0 1009.5 -0.5 91
2020-03-24 00:00:00 14.1 27 Nordeste 41 Nordeste 0 1009.8 -0.1 91
2020-03-23 23:00:00 14.1 23 Nordeste 41 Nordeste 0 1010.3 0.7 90
2020-03-23 22:00:00 14.2 22 Nordeste 37 Este 0 1010 0.8 91
2020-03-23 21:00:00 14.2 22 Nordeste 39 Nordeste 0 1009.9 0.8 92
2020-03-23 20:00:00 13.9 22 Nordeste 39 Nordeste 0.3 1009.6 0.9 91
2020-03-23 19:00:00 14.3 24 Nordeste 35 Nordeste 0 1009.2 0.5 87
2020-03-23 18:00:00 14.9 24 Nordeste 37 Este 0 1009.1 0.2 82
2020-03-23 17:00:00 15.4 23 Este 33 Este 0 1008.7 -0.7 83
2020-03-23 16:00:00 16.1 18 Este 30 Este 0 1008.7 -0.9 79
2020-03-23 15:00:00 16.3 22 Este 33 Este 0 1008.9 -0.9 67
2020-03-23 14:00:00 15.9 18 Nordeste 26 Nordeste 0 1009.4 -0.3 74
2020-03-23 13:00:00 15.4 16 Nordeste 22 Nordeste 0 1009.6 0.2 78
2020-03-23 12:00:00 13.9 10 Este 26 Este 0.1 1009.8 0.9 82
2020-03-23 11:00:00 13.8 15 Nordeste 32 Nordeste 3.4 1009.7 1.4 87
2020-03-23 10:00:00 12.4 16 Nordeste 32 Nordeste 5.4 1009.4 1.6 97
2020-03-23 09:00:00 12.6 12 Nordeste 21 Norte 0 1008.9 1.6 91
2020-03-23 08:00:00 12.2 13 Nordeste 21 Norte 0.3 1008.3 1.1 93
2020-03-23 07:00:00 12.1 12 Nordeste 26 Norte 0 1007.8 0.8 92
2020-03-23 06:00:00 11.8 13 Nordeste 22 Nordeste 0 1007.3 0.2 93
2020-03-23 05:00:00 12.1 14 Nordeste 26 Nordeste 0 1007.2 -0.2 93
2020-03-23 04:00:00 12 18 Nordeste 28 Nordeste 0 1007 -0.6 94
2020-03-23 03:00:00 12.1 18 Nordeste 28 Nordeste 0 1007.1 -0.6 94
2020-03-23 02:00:00 12 14 Nordeste 26 Norte 0.2 1007.4 0.1 93
2020-03-23 01:00:00 12.1 14 Nordeste 22 Nordeste 2.3 1007.6 0.3 94
2020-03-23 00:00:00 12.3 13 Nordeste 28 Nordeste 3.4 1007.7 0.8 94
2020-03-22 23:00:00 12.7 17 Nordeste 26 Nordeste 3.6 1007.3 0.7 94
2020-03-22 22:00:00 12.3 9 Nordeste 22 Nordeste 2.4 1007.3 1.5 92
2020-03-22 21:00:00 13.2 17 Nordeste 26 Nordeste 0 1006.9 1.5 85
2020-03-22 20:00:00 13.3 11 Este 22 Este 0 1006.6 1.6 81
2020-03-22 19:00:00 13.3 15 Este 24 Este 0 1005.8 0.9 79
2020-03-22 18:00:00 13.8 16 Este 24 Este 0 1005.4 0.6 76
2020-03-22 17:00:00 14.7 17 Este 28 Este 0 1005 0 75
2020-03-22 16:00:00 14.9 18 Este 32 Este 0 1004.9 -0.6 73
2020-03-22 15:00:00 15.2 22 Este 30 Este 0 1004.8 -0.9 74
2020-03-22 14:00:00 15.2 12 Nordeste 26 Este 0 1005 -0.6 72
2020-03-22 13:00:00 13.9 13 Este 22 Este 0 1005.5 0.3 75
2020-03-22 12:00:00 14.3 7 Nordeste 15 Nordeste 0 1005.7 0.6 73
2020-03-22 11:00:00 13.7 8 Norte 13 Norte 0 1005.6 0.8 76
2020-03-22 10:00:00 12.9 4 Noroeste 8 Noroeste 0 1005.2 0.9 79
2020-03-22 09:00:00 10.9 5 Oeste 11 Noroeste 0 1005.1 1 94
2020-03-22 08:00:00 10.5 6 Oeste 13 Norte 0 1004.8 0.7 97
2020-03-22 07:00:00 10.3 7 Norte 13 Noroeste 0 1004.3 0.1 96
2020-03-22 06:00:00 10.4 7 Noroeste 9 Noroeste 0.6 1004.1 -0.4 96
2020-03-22 05:00:00 10.7 4 Noroeste 8 Sudoeste 0.5 1004.1 -0.8 96
2020-03-22 04:00:00 10.6 4 Oeste 11 Noroeste 0 1004.2 -1.4 95
2020-03-22 03:00:00 10.7 9 Noroeste 17 Noroeste 0 1004.5 -1.4 95
2020-03-22 02:00:00 10.9 13 Noroeste 17 Noroeste 0.5 1004.9 -1.1 95
2020-03-22 01:00:00 10.9 8 Oeste 11 Oeste 3.4 1005.6 -0.4 97
2020-03-22 00:00:00 11 9 Oeste 18 Oeste 1.3 1005.9 0 94
2020-03-21 23:00:00 12.6 6 Noroeste 8 Noroeste 0.1 1006 0.3 92
2020-03-21 22:00:00 12.9 6 Noroeste 8 Noroeste 0 1006 0.8 88
2020-03-21 21:00:00 13.2 4 Norte 8 Nordeste 0 1005.9 1 85
2020-03-21 20:00:00 13.2 4 Este 11 Este 0 1005.7 0.7 87
2020-03-21 19:00:00 13.4 9 Este 15 Este 0 1005.2 -0.2 83
2020-03-21 18:00:00 13.8 11 Este 18 Este 0 1004.9 -1.1 78
2020-03-21 17:00:00 14 13 Este 21 Este 0 1005 -1.5 73
2020-03-21 16:00:00 14.1 11 Este 18 Este 0 1005.4 -1.4 73
2020-03-21 15:00:00 13.8 13 Este 21 Este 0 1006 -1.3 76
2020-03-21 14:00:00 14 14 Este 24 Nordeste 0 1006.5 -1.2 72
2020-03-21 13:00:00 14 13 Este 22 Este 0 1006.8 -1 71
2020-03-21 12:00:00 13.7 13 Nordeste 21 Nordeste 0 1007.3 -0.4 73
2020-03-21 11:00:00 12.5 5 Noroeste 9 Noroeste 0 1007.7 0.3 78
2020-03-21 10:00:00 11.4 7 Noroeste 13 Noroeste 0 1007.8 0.4 83
2020-03-21 09:00:00 10.6 10 Noroeste 13 Noroeste 0 1007.7 0.3 89
2020-03-21 08:00:00 10 6 Noroeste 9 Noroeste 0 1007.4 -0.2 92
2020-03-21 07:00:00 9.4 6 Oeste 9 Oeste 0 1007.4 -0.6 97
2020-03-21 06:00:00 8.7 5 Noroeste 9 Noroeste 0 1007.4 -1.1 98
2020-03-21 05:00:00 8.8 5 Oeste 13 Noroeste 0 1007.6 -1.7 96
2020-03-21 04:00:00 9.5 11 Noroeste 15 Noroeste 0 1008 -1.7 96
2020-03-21 03:00:00 10.1 8 Norte 11 Norte 0 1008.5 -1.7 95
2020-03-21 02:00:00 10.8 8 Noroeste 11 Noroeste 0 1009.3 -1.2 93
2020-03-21 01:00:00 12.2 5 Nordeste 13 Nordeste 0 1009.7 -0.8 88
2020-03-21 00:00:00 12.5 9 Nordeste 22 Este 0 1010.2 -0.1 87
2020-03-20 23:00:00 12.8 12 Nordeste 18 Nordeste 0 1010.5 0.5 88
2020-03-20 22:00:00 12.5 9 Nordeste 15 Nordeste 0 1010.5 0.4 90
2020-03-20 21:00:00 12.8 7 Nordeste 18 Nordeste 0 1010.3 0.3 88
2020-03-20 20:00:00 13.2 12 Nordeste 30 Nordeste 0 1010 -0.1 87
2020-03-20 19:00:00 13.6 17 Nordeste 28 Nordeste 0 1010.1 -0.6 82
2020-03-20 18:00:00 14.3 17 Este 24 Este 0 1010 -1.1 77
2020-03-20 17:00:00 14.7 16 Nordeste 26 Nordeste 0 1010.1 -1.6 77
2020-03-20 16:00:00 14.5 17 Nordeste 28 Este 0 1010.7 -1.2 78
2020-03-20 15:00:00 14.1 19 Este 32 Este 0 1011.1 -0.9 81
2020-03-20 14:00:00 14.5 21 Este 33 Este 0 1011.7 -0.4 74
2020-03-20 13:00:00 15.2 24 Nordeste 37 Nordeste 0 1011.9 -0.2 73
2020-03-20 12:00:00 15.5 23 Nordeste 39 Nordeste 0 1012 0 70
2020-03-20 11:00:00 15.1 24 Nordeste 33 Nordeste 0 1012.1 0.3 69
2020-03-20 10:00:00 14.7 21 Nordeste 32 Nordeste 0 1012.1 0.8 70
2020-03-20 09:00:00 13.2 15 Nordeste 28 Nordeste 0 1012 0.6 77
2020-03-20 08:00:00 12.4 17 Nordeste 33 Nordeste 0 1011.8 0.3 81
2020-03-20 07:00:00 12.3 17 Nordeste 26 Nordeste 0 1011.3 -0.3 80
2020-03-20 06:00:00 12.4 12 Nordeste 22 Nordeste 0 1011.4 -0.7 80
2020-03-20 05:00:00 12.4 12 Nordeste 18 Nordeste 0 1011.5 -1.1 83
2020-03-20 04:00:00 12.4 10 Nordeste 17 Nordeste 0 1011.6 -1.2 84
2020-03-20 03:00:00 12.4 9 Nordeste 18 Nordeste 0 1012.1 -1.3 85
2020-03-20 02:00:00 12.5 9 Nordeste 17 Nordeste 0 1012.6 -1.2 88
2020-03-20 01:00:00 11.8 5 Noroeste 13 Norte 0 1012.8 -1 92
2020-03-20 00:00:00 11.8 8 Norte 15 Nordeste 0 1013.4 -0.4 93
2020-03-19 23:00:00 12.4 11 Nordeste 17 Nordeste 0 1013.8 0.1 91
2020-03-19 22:00:00 12.6 9 Nordeste 13 Nordeste 0 1013.8 0.4 92
2020-03-19 21:00:00 13 9 Nordeste 15 Nordeste 0 1013.8 0.6 91
2020-03-19 20:00:00 13.2 11 Nordeste 24 Este 0 1013.7 0.3 89
2020-03-19 19:00:00 13.8 15 Este 24 Este 0 1013.4 -0.6 85
2020-03-19 18:00:00 14.7 17 Este 26 Este 0 1013.2 -1.3 82
2020-03-19 17:00:00 15.3 18 Este 26 Este 0 1013.4 -1.6 76
2020-03-19 16:00:00 15.5 17 Este 28 Este 0 1014 -1.7 77
2020-03-19 15:00:00 15.9 20 Este 32 Nordeste 0 1014.5 -1.6 74
2020-03-19 14:00:00 15.9 22 Este 32 Este 0 1015 -1.8 74
2020-03-19 13:00:00 15.9 18 Este 30 Este 0 1015.7 -1 73
2020-03-19 12:00:00 15.5 14 Este 24 Este 0 1016.1 -0.3 73
2020-03-19 11:00:00 14.4 14 Nordeste 22 Nordeste 0 1016.8 0.4 76
2020-03-19 10:00:00 12.8 3 Norte 9 Noroeste 0 1016.7 0.6 80
2020-03-19 09:00:00 11 7 Noroeste 11 Noroeste 0 1016.4 0.2 86
2020-03-19 08:00:00 10 5 Noroeste 13 Noroeste 0 1016.4 0.3 92
2020-03-19 07:00:00 9.9 9 Noroeste 18 Noroeste 0 1016.1 0 90
2020-03-19 06:00:00 10 9 Noroeste 15 Noroeste 0 1016.2 -0.8 94
2020-03-19 05:00:00 10.9 10 Norte 18 Norte 0 1016.1 -1.3 91
2020-03-19 04:00:00 10.4 16 Noroeste 22 Noroeste 0 1016.1 -1.9 94
2020-03-19 03:00:00 10.1 10 Noroeste 13 Noroeste 0 1017 -1.5 96
2020-03-19 02:00:00 11.6 12 Norte 15 Norte 0 1017.4 -1.4 89
2020-03-19 01:00:00 12.1 7 Nordeste 11 Nordeste 0 1018 -0.7 90
2020-03-19 00:00:00 11.2 7 Noroeste -- -- 0 1018.5 0 95
2020-03-18 23:00:00 11.9 4 Noroeste 8 Nordeste 0 1018.8 0.5 92
2020-03-18 22:00:00 12.5 5 Norte 11 Norte 0 1018.7 0.6 90
2020-03-18 21:00:00 12.9 6 Nordeste 13 Este 0 1018.5 0.7 87
2020-03-18 20:00:00 13.2 8 Este 18 Este 0 1018.3 0.5 87
2020-03-18 19:00:00 13.6 14 Este 24 Este 0 1018.1 0 84
2020-03-18 18:00:00 13.9 15 Este 32 Este 0 1017.8 -0.6 83
2020-03-18 17:00:00 15.2 19 Este 33 Nordeste 0 1017.8 -1.2 67
2020-03-18 16:00:00 15.6 21 Este 35 Este 0 1018.1 -1.8 72
2020-03-18 15:00:00 16.6 22 Este 32 Este 0 1018.4 -1.9 67
2020-03-18 14:00:00 16.7 20 Este 33 Este 0 1019 -1.7 73
2020-03-18 13:00:00 16.3 17 Este 30 Nordeste 0 1019.9 -0.7 73
2020-03-18 12:00:00 15.8 19 Nordeste 32 Este 0 1020.3 -0.1 70
2020-03-18 11:00:00 15.6 21 Nordeste 33 Nordeste 0 1020.7 0.5 66
2020-03-18 10:00:00 14.9 18 Nordeste 28 Nordeste 0 1020.6 0.4 68
2020-03-18 09:00:00 13 6 Norte 13 Noroeste 0 1020.4 0.2 82
2020-03-18 08:00:00 10.6 7 Noroeste 11 Noroeste 0 1020.2 0 95
2020-03-18 07:00:00 10.7 9 Noroeste 15 Noroeste 0 1020.2 0 93
2020-03-18 06:00:00 10.7 10 Noroeste 15 Norte 0 1020.2 -0.4 94
2020-03-18 05:00:00 11.2 10 Noroeste 13 Noroeste 0 1020.2 -0.7 94
2020-03-18 04:00:00 11.6 9 Noroeste 11 Noroeste 0 1020.2 -0.8 92
2020-03-18 03:00:00 13.1 6 Nordeste 15 Nordeste 0 1020.6 -0.6 82
2020-03-18 02:00:00 13.4 11 Nordeste 30 Nordeste 0 1020.9 -0.2 79
2020-03-18 01:00:00 13.4 16 Nordeste 28 Este 0 1021 0 82
2020-03-18 00:00:00 13.4 17 Nordeste 28 Nordeste 0 1021.2 0.8 82
2020-03-17 23:00:00 13.7 18 Nordeste 33 Nordeste 0 1021.1 1.3 85
2020-03-17 22:00:00 13.8 22 Nordeste 33 Nordeste 0 1021 1.8 86
2020-03-17 21:00:00 14.1 21 Nordeste 42 Nordeste 0 1020.4 1.6 87
2020-03-17 20:00:00 14.1 26 Nordeste 45 Nordeste 0 1019.8 1.6 87
2020-03-17 19:00:00 14.2 26 Nordeste 50 Nordeste 0 1019.2 1.4 88
2020-03-17 18:00:00 14.1 25 Nordeste 52 Nordeste 0 1018.8 1.3 92
2020-03-17 17:00:00 14.1 30 Nordeste 52 Nordeste 0 1018.2 0.9 93
2020-03-17 16:00:00 14 33 Nordeste 50 Nordeste 0 1017.8 0.2 95
2020-03-17 15:00:00 14.2 34 Nordeste 55 Nordeste 0 1017.5 -0.5 95
2020-03-17 14:00:00 14.5 27 Nordeste 42 Nordeste 0.1 1017.3 -1 96
2020-03-17 13:00:00 12.7 10 Noroeste 18 Noroeste 1.1 1017.6 -0.1 98
2020-03-17 12:00:00 12 13 Noroeste 18 Noroeste 3.9 1018 1.2 98
2020-03-17 11:00:00 11.8 9 Noroeste 13 Noroeste 1 1018.3 2.4 97
2020-03-17 10:00:00 11.5 9 Noroeste 13 Noroeste 0 1017.7 2.7 98
2020-03-17 09:00:00 11.1 8 Norte 13 Norte 0.8 1016.8 2.5 99
2020-03-17 08:00:00 10.8 4 Norte 9 Sudoeste 1.3 1015.9 2.5 99
2020-03-17 07:00:00 10.5 8 Oeste 11 Noroeste 0.8 1015 1.9 99
2020-03-17 06:00:00 10.1 4 Noroeste 11 Noroeste 0.6 1014.3 1 99
2020-03-17 05:00:00 10 9 Noroeste 13 Noroeste 3.1 1013.4 0.4 99
2020-03-17 04:00:00 9.8 10 Noroeste 15 Noroeste 3.5 1013.1 0.5 99
2020-03-17 03:00:00 9.8 5 Noroeste 9 Oeste 3.1 1013.3 1.2 98
2020-03-17 02:00:00 9.9 6 Norte 9 Norte 1.2 1013 1.6 96
2020-03-17 01:00:00 9.9 5 Sudoeste 8 Sur 0.6 1012.6 2 94
2020-03-17 00:00:00 9.9 4 Oeste 11 Sudoeste 0.1 1012.1 2.5 91
2020-03-16 23:00:00 9.5 2 Oeste 15 Oeste 0 1011.4 2.7 91
2020-03-16 22:00:00 9.7 9 Oeste 15 Oeste 0 1010.6 2.7 85
2020-03-16 21:00:00 9.6 11 Oeste 21 Oeste 0 1009.6 2.4 81
2020-03-16 20:00:00 9.8 10 Oeste 24 Oeste 0 1008.7 1.5 80
2020-03-16 19:00:00 10 16 Oeste 24 Oeste 0 1007.9 1.6 74
2020-03-16 18:00:00 9.9 12 Oeste 28 Oeste 0.2 1007.2 0.5 76
2020-03-16 17:00:00 9.7 17 Oeste 37 Noroeste 0 1007.2 1.2 76
2020-03-16 16:00:00 9.3 29 Noroeste 48 Noroeste 0 1006.3 0.3 79
2020-03-16 15:00:00 10 17 Oeste 33 Oeste 1.3 1006.7 0.8 89
2020-03-16 14:00:00 10.7 21 Oeste 39 Oeste 0 1006 0.4 80
2020-03-16 13:00:00 11.1 22 Oeste 35 Oeste 0 1006 1.3 82
2020-03-16 12:00:00 10.8 11 Oeste 30 Oeste 0.2 1005.9 1.7 90
2020-03-16 11:00:00 10.9 29 Oeste 48 Oeste 0.9 1005.6 1.5 87
2020-03-16 10:00:00 14.3 19 Este 30 Este 0 1004.7 1.1 89
2020-03-16 09:00:00 14.1 16 Este 28 Este 0 1004.2 0.6 86
2020-03-16 08:00:00 13.7 16 Este 28 Este 0 1004.1 0.2 90
2020-03-16 07:00:00 13.5 18 Este 26 Este 0.4 1003.6 -1.1 92
2020-03-16 06:00:00 13.7 15 Este 22 Este 0.4 1003.6 -1.4 92
2020-03-16 05:00:00 13.8 14 Este 22 Este 0.2 1003.9 -2.4 93
2020-03-16 04:00:00 14.1 9 Este 22 Este 0 1004.7 -2 89
2020-03-16 03:00:00 14.2 20 Este 26 Este 0 1005 -2 90
2020-03-16 02:00:00 14.2 13 Nordeste 21 Este 0 1006.3 -1.6 92
2020-03-16 01:00:00 14.4 15 Este 26 Nordeste 0 1006.7 -1.6 87
2020-03-16 00:00:00 14.6 19 Nordeste 28 Nordeste 0 1007 -0.7 85
2020-03-15 23:00:00 14.7 14 Nordeste 30 Este 0 1007.9 0.1 82
2020-03-15 22:00:00 14.8 13 Nordeste 22 Este 0 1008.3 0.9 82
2020-03-15 21:00:00 14.8 14 Este 24 Este 0 1007.7 0.3 82
2020-03-15 20:00:00 15 14 Este 26 Este 0 1007.8 0.2 80
2020-03-15 19:00:00 15.1 17 Este 26 Sudeste 0 1007.4 -0.7 78
2020-03-15 18:00:00 16.1 17 Este 24 Este 0 1007.4 -1.3 74
2020-03-15 17:00:00 16.2 18 Sudeste 26 Sudeste 0 1007.6 -1.9 73
2020-03-15 16:00:00 16.9 18 Sudeste 28 Este 0 1008.1 -2.4 69
2020-03-15 15:00:00 18 20 Sudeste 30 Sudeste 0 1008.7 -2.7 59
2020-03-15 14:00:00 18.6 18 Sudeste 28 Sudeste 0 1009.5 -2.3 59
2020-03-15 13:00:00 18.6 6 Sudeste 17 Sudeste 0 1010.5 -1.7 56
2020-03-15 12:00:00 16.4 7 Sudoeste 11 Sudoeste 0 1011.4 -0.7 67
2020-03-15 11:00:00 15.8 3 Este 9 Este 0 1011.8 0.1 72
2020-03-15 10:00:00 13.9 5 Noroeste 9 Norte 0 1012.2 0.7 79
2020-03-15 09:00:00 12.1 5 Noroeste 11 Noroeste 0 1012.1 0.7 85
2020-03-15 08:00:00 10.9 8 Noroeste 13 Noroeste 0 1011.7 0.2 87
2020-03-15 07:00:00 10.7 8 Noroeste 13 Noroeste 0 1011.5 -0.1 90
2020-03-15 06:00:00 10 7 Oeste 9 Noroeste 0 1011.4 -0.8 94
2020-03-15 05:00:00 9 7 Noroeste 11 Oeste 0 1011.5 -1.2 95
2020-03-15 04:00:00 9.3 8 Oeste 11 Noroeste 0 1011.6 -1.3 96
2020-03-15 03:00:00 10.4 5 Noroeste 11 Noroeste 0 1012.2 -1 93
2020-03-15 02:00:00 -- 9 Noroeste 13 Norte 0 1012.7 -0.6 --
2020-03-15 01:00:00 11.9 10 Norte 13 Norte 0 1012.9 -0.3 94
2020-03-15 00:00:00 12 6 Noroeste 13 Norte 0 1013.2 0.2 92
2020-03-14 23:00:00 13.2 8 Noroeste 13 Norte 0 1013.3 0.6 89
2020-03-14 22:00:00 14.5 8 Nordeste 11 Nordeste 0 1013.2 1.1 84
2020-03-14 21:00:00 14.9 7 Nordeste 11 Nordeste 0 1013 1.1 85
2020-03-14 20:00:00 14.7 8 Sudeste 15 Sudeste 0 1012.7 1.2 86
2020-03-14 19:00:00 15.2 12 Sudeste 22 Sudeste 0 1012.1 0.7 82
2020-03-14 18:00:00 16.9 15 Sudeste 22 Este 0 1011.9 0.1 68
2020-03-14 17:00:00 18.1 15 Este 24 Este 0 1011.5 -1 65
2020-03-14 16:00:00 19.2 17 Este 28 Este 0 1011.4 -1.7 59
2020-03-14 15:00:00 20.2 13 Este 22 Este 0 1011.8 -1.8 53
2020-03-14 14:00:00 19.9 10 Sudeste 21 Sudeste 0 1012.5 -1.5 51
2020-03-14 13:00:00 18.9 13 Este 24 Este 0 1013.1 -0.9 54
2020-03-14 12:00:00 19 9 Sudeste 18 Sudeste 0 1013.6 0.2 52
2020-03-14 11:00:00 18 5 Sudeste 13 Noroeste 0 1014 1.6 56
2020-03-14 10:00:00 15 8 Noroeste 13 Norte 0 1014 2.1 65
2020-03-14 09:00:00 12.3 2 Noroeste 8 Noroeste 0 1013.4 1.8 81
2020-03-14 08:00:00 9.5 0 Calma 8 Noroeste 0 1012.4 0.9 91
2020-03-14 07:00:00 9.3 5 Noroeste 11 Oeste 0 1011.9 0.2 91
2020-03-14 06:00:00 9.8 7 Noroeste 11 Noroeste 0 1011.6 -0.6 91
2020-03-14 05:00:00 10.1 3 Sudoeste 8 Sudoeste 0 1011.5 -1.2 92
2020-03-14 04:00:00 9.5 7 Oeste 9 Noroeste 0 1011.7 -1.1 93
2020-03-14 03:00:00 9.6 5 Oeste 8 Noroeste 0 1012.2 -0.6 92
2020-03-14 02:00:00 10.4 0 Calma -- -- -- 1012.7 -0.2 90
2020-03-14 01:00:00 10.8 -- -- -- -- 0 1012.8 0.1 91
2020-03-14 00:00:00 11.3 7 Oeste 9 Oeste 0 1012.8 0.5 88
2020-03-13 23:00:00 12.5 2 Sudoeste 8 Nordeste 0 1012.9 0.9 82
2020-03-13 22:00:00 14.3 6 Nordeste 24 Nordeste 0 1012.7 0.9 76
2020-03-13 21:00:00 14.3 8 Este 18 Nordeste 0 1012.3 0.9 77
2020-03-13 20:00:00 14.4 9 Este 13 Este 0 1012 0.3 76
2020-03-13 19:00:00 15.1 9 Este 18 Este 0 1011.8 -0.3 75
2020-03-13 18:00:00 15.8 13 Este 32 Nordeste 0 1011.4 -1.1 72
2020-03-13 17:00:00 16.4 15 Este 28 Este 0 1011.7 -1.3 69
2020-03-13 16:00:00 17.3 17 Este 32 Este 0 1012.1 -1.6 66
2020-03-13 15:00:00 17.5 19 Este 32 Este 0 1012.5 -1.3 66
2020-03-13 14:00:00 17.6 21 Este 35 Este 0 1013 -0.6 64
2020-03-13 13:00:00 18 22 Este 39 Este 0 1013.7 0 62
2020-03-13 12:00:00 17.9 21 Nordeste 32 Nordeste 0 1013.8 0.4 62
2020-03-13 11:00:00 18 15 Este 24 Nordeste 0 1013.6 0.8 58
2020-03-13 10:00:00 15.8 8 Noroeste 13 Noroeste 0 1013.7 1.4 71
2020-03-13 09:00:00 13.7 9 Oeste 15 Oeste 0 1013.4 1.7 85
2020-03-13 08:00:00 11.2 11 Noroeste 13 Noroeste 0 1012.8 1.4 96
2020-03-13 07:00:00 11.7 8 Noroeste 15 Nordeste 0 1012.3 1.3 95
2020-03-13 06:00:00 12.5 12 Nordeste 24 Este 0 1011.7 0.6 93
2020-03-13 05:00:00 12.7 18 Este 26 Nordeste 0 1011.4 0.4 94
2020-03-13 04:00:00 12.5 13 Nordeste 21 Nordeste 0 1011 0 95
2020-03-13 03:00:00 10.4 0 Calma 9 Noroeste 0 1011.1 -0.1 94
2020-03-13 02:00:00 12 4 Sudeste -- -- -- 1011 0.1 94
2020-03-13 01:00:00 13 0 Calma 11 Sudeste 0 1011 0.5 95
2020-03-13 00:00:00 13.2 7 Este 11 Este 0 1011.2 0.6 95
2020-03-12 23:00:00 13.4 6 Este 8 Este 0 1010.9 0.7 93
2020-03-12 22:00:00 14 5 Este 11 Este 0 1010.5 0.5 91
2020-03-12 21:00:00 14.7 6 Nordeste 13 Norte 0 1010.6 0.7 86
2020-03-12 20:00:00 15.6 8 Nordeste 15 Nordeste 0 1010.2 0.4 80
2020-03-12 19:00:00 15.7 9 Nordeste 13 Norte 0 1010 -0.2 81
2020-03-12 18:00:00 15.9 10 Este 21 Este 0 1009.9 -0.8 83
2020-03-12 17:00:00 17.7 17 Este 22 Este 0 1009.8 -2 72
2020-03-12 16:00:00 19.1 14 Este 22 Este 0 1010.2 -2.6 67
2020-03-12 15:00:00 21.1 16 Nordeste 22 Este 0 1010.7 -2.6 56
2020-03-12 14:00:00 21.1 10 Este 21 Este 0 1011.8 -1.9 54
2020-03-12 13:00:00 21.1 12 Este 18 Este 0 1012.8 -1 53
2020-03-12 12:00:00 21 10 Este 15 Sudeste 0 1013.3 -0.6 49
2020-03-12 11:00:00 19.6 0 Calma 8 Este 0 1013.7 0.3 52
2020-03-12 10:00:00 16.6 3 Nordeste 9 Norte 0 1013.8 0.7 61
2020-03-12 09:00:00 13.1 8 Noroeste 11 Noroeste 0 1013.9 0.9 72
2020-03-12 08:00:00 9.8 9 Noroeste 11 Noroeste 0 1013.4 0.8 87
2020-03-12 07:00:00 9.3 4 Noroeste 8 Noroeste 0 1013.1 0.1 85
2020-03-12 06:00:00 9.3 4 Oeste 8 Oeste 0 1013 -0.8 85
2020-03-12 05:00:00 9.4 4 Noroeste 11 Noroeste 0 1012.6 -1.6 87
2020-03-12 04:00:00 -- 9 Noroeste 11 Noroeste 0 1013 -1.5 --
2020-03-12 03:00:00 10.8 6 Oeste 9 Noroeste 0 1013.8 -1 84
2020-03-12 02:00:00 11.6 0 Calma -- -- -- 1014.2 -1 81
2020-03-12 01:00:00 12.1 3 Oeste 5 Oeste 0 1014.5 -1 81
2020-03-12 00:00:00 12.1 6 Oeste 9 Oeste 0 1014.8 -0.6 81
2020-03-11 23:00:00 13.2 8 Noroeste 9 Oeste 0 1015.2 -0.1 78
2020-03-11 22:00:00 13.9 7 Sudoeste 9 Sudoeste 0 1015.5 0.4 76
2020-03-11 21:00:00 14.3 6 Oeste 8 Oeste 0 1015.4 0.7 71
2020-03-11 20:00:00 16.6 0 Calma 13 Nordeste 0 1015.3 0.9 65
2020-03-11 19:00:00 17.3 9 Nordeste 17 Este 0 1015.1 0.6 58
2020-03-11 18:00:00 18.2 11 Este 21 Este 0 1014.7 0.1 62
2020-03-11 17:00:00 19.6 15 Este 24 Este 0 1014.4 -0.7 56
2020-03-11 16:00:00 20.8 16 Este 24 Este 0 1014.5 -1 45
2020-03-11 15:00:00 22.3 16 Este 24 Este 0 1014.6 -1.3 41
2020-03-11 14:00:00 22.6 15 Este 30 Este 0 1015.1 -1 41
2020-03-11 13:00:00 24.6 17 Este 24 Nordeste 0 1015.5 -0.6 37
2020-03-11 12:00:00 24.1 8 Este 13 Este 0 1015.9 0.2 34
2020-03-11 11:00:00 22.1 5 Este 11 Este 0 1016.1 1 39
2020-03-11 10:00:00 18.8 4 Este 9 Sudeste 0 1016.1 1.1 49
2020-03-11 09:00:00 14.4 0 Calma 13 Oeste 0 1015.7 0.8 63
2020-03-11 08:00:00 8.9 9 Noroeste 15 Noroeste 0 1015.1 0.4 84
2020-03-11 07:00:00 8.1 5 Noroeste 15 Noroeste 0 1015 -0.1 87
2020-03-11 06:00:00 8.3 7 Noroeste 13 Sudoeste 0 1014.9 -0.5 87
2020-03-11 05:00:00 8.3 7 Oeste 13 Oeste 0 1014.7 -1.2 87
2020-03-11 04:00:00 9.1 9 Oeste 11 Oeste 0 1015.1 -0.6 85
2020-03-11 03:00:00 9.8 6 Oeste 8 Oeste 0 1015.4 -0.4 83
2020-03-11 02:00:00 11.3 7 Noroeste -- -- -- 1015.9 -0.2 78
2020-03-11 01:00:00 10.8 8 Oeste 11 Oeste 0 1015.7 -0.3 80
2020-03-11 00:00:00 11.7 7 Oeste 15 Noroeste 0 1015.8 0.1 77